Pontevedra, Spain
Current Conditions -  °F | °C
As of 11:00 AM on Sunday 23 Nov 2014 (Local Time) from LEVX Reporting Station
Light Rain Light Rain  
Wind Chill: 50°   Ceiling: 3900
Heat Index: 50°   Visibility: 3mi
Dew Point: 50°   Wind: 9mph
Humidity: 100%   Direction: 30°NNE
Pressure: 29.88"   Gusts: NA
Location:  42.43°N, 8.65°W
Report Text: LEVX 231000Z 03008KT 340V110 5000 BCFG -RA FEW004 SCT020 BKN039 10/10 Q1012 TEMPO 0800 BCFG RA
Loading
Personal Weather Stations






























Interactive Weather Map New forecast layout! Learn more

10-Day Weather Forecast

Advertisements
Track Severe Weather on mobile